createdAt,value
2023-05-14T00:01:42.400Z,7.88
2023-05-14T00:06:43.795Z,7.95
2023-05-14T00:11:45.205Z,7.82
2023-05-14T00:16:46.655Z,7.68
2023-05-14T00:21:48.355Z,7.63
2023-05-14T00:26:49.776Z,8.73
2023-05-14T00:31:51.439Z,8.68
2023-05-14T00:36:52.939Z,11.13
2023-05-14T00:41:54.396Z,9.02
2023-05-14T00:46:55.975Z,10.80
2023-05-14T00:51:57.561Z,8.68
2023-05-14T00:56:59.974Z,14.23
2023-05-14T01:02:01.714Z,10.05
2023-05-14T01:07:16.742Z,9.85
2023-05-14T01:12:52.024Z,10.70
2023-05-14T01:18:04.194Z,9.85
2023-05-14T01:23:05.766Z,10.23
2023-05-14T01:28:18.997Z,9.02
2023-05-14T01:33:22.335Z,10.07
2023-05-14T01:38:24.629Z,9.85
2023-05-14T01:43:26.208Z,10.73
2023-05-14T01:48:28.103Z,10.27
2023-05-14T01:53:29.618Z,11.73
2023-05-14T01:58:31.048Z,12.45
2023-05-14T02:03:32.536Z,12.23
2023-05-14T02:08:34.065Z,12.23
2023-05-14T02:13:36.297Z,11.55
2023-05-14T02:18:37.771Z,12.85
2023-05-14T02:23:42.069Z,12.10
2023-05-14T02:28:44.056Z,10.35
2023-05-14T02:33:47.677Z,10.00
2023-05-14T02:38:49.327Z,9.13
2023-05-14T02:43:50.875Z,8.68
2023-05-14T02:48:52.417Z,8.00
2023-05-14T02:53:54.392Z,8.45
2023-05-14T02:58:55.886Z,7.82
2023-05-14T03:03:57.885Z,8.15
2023-05-14T03:08:59.320Z,9.80
2023-05-14T03:14:00.814Z,9.43
2023-05-14T03:19:02.277Z,10.50
2023-05-14T03:24:04.455Z,8.00
2023-05-14T03:29:05.858Z,9.13
2023-05-14T03:34:07.297Z,8.82
2023-05-14T03:39:08.760Z,8.43
2023-05-14T03:44:10.342Z,11.77
2023-05-14T03:49:11.873Z,8.40
2023-05-14T03:54:13.518Z,7.30
2023-05-14T03:59:14.944Z,10.05
2023-05-14T04:04:16.403Z,8.05
2023-05-14T04:09:17.864Z,8.27
2023-05-14T04:14:19.286Z,7.70
2023-05-14T04:19:20.793Z,8.52
2023-05-14T04:24:22.231Z,7.82
2023-05-14T04:29:23.670Z,8.75
2023-05-14T04:34:25.146Z,8.23
2023-05-14T04:39:26.613Z,9.82
2023-05-14T04:44:28.079Z,11.85
2023-05-14T04:49:30.949Z,8.07
2023-05-14T04:54:32.556Z,11.40
2023-05-14T04:59:34.032Z,8.25
2023-05-14T05:04:35.463Z,7.82
2023-05-14T05:09:36.891Z,7.32
2023-05-14T05:14:38.341Z,7.00
2023-05-14T05:19:43.837Z,6.25
2023-05-14T05:24:46.471Z,7.72
2023-05-14T05:29:48.521Z,6.38
2023-05-14T05:34:50.023Z,6.45
2023-05-14T05:39:51.443Z,6.20
2023-05-14T05:44:52.904Z,6.05
2023-05-14T05:49:54.298Z,6.07
2023-05-14T05:54:55.717Z,5.90
2023-05-14T05:59:57.154Z,5.78
2023-05-14T06:04:58.594Z,8.05
2023-05-14T06:10:00.178Z,5.28
2023-05-14T06:15:01.655Z,6.10
2023-05-14T06:20:03.304Z,5.63
2023-05-14T06:25:05.145Z,5.70
2023-05-14T06:30:07.072Z,4.28
2023-05-14T06:35:09.119Z,4.90
2023-05-14T06:40:11.245Z,5.03
2023-05-14T06:45:12.664Z,5.20
2023-05-14T06:50:14.098Z,6.13
2023-05-14T06:55:15.549Z,5.00
2023-05-14T07:00:17.501Z,5.10
2023-05-14T07:05:18.963Z,4.97
2023-05-14T07:10:20.419Z,6.28
2023-05-14T07:15:21.899Z,5.13
2023-05-14T07:20:23.762Z,5.13
2023-05-14T07:25:25.447Z,5.50
2023-05-14T07:30:26.987Z,5.53
2023-05-14T07:35:28.544Z,5.53
2023-05-14T07:40:30.002Z,5.30
2023-05-14T07:45:31.541Z,5.60
2023-05-14T07:50:32.988Z,5.28
2023-05-14T07:55:34.381Z,4.90
2023-05-14T08:00:35.812Z,5.05
2023-05-14T08:05:37.268Z,6.10
2023-05-14T08:10:38.739Z,4.93
2023-05-14T08:15:40.252Z,5.57
2023-05-14T08:20:41.687Z,5.75
2023-05-14T08:25:43.136Z,4.57
2023-05-14T08:35:54.682Z,4.65
2023-05-14T08:40:57.628Z,4.00
2023-05-14T08:46:01.373Z,3.75
2023-05-14T08:51:03.282Z,4.05
2023-05-14T08:56:06.670Z,3.90
2023-05-14T09:01:08.145Z,3.90
2023-05-14T09:06:11.085Z,3.75
2023-05-14T09:11:12.533Z,3.47
2023-05-14T09:16:15.020Z,4.50
2023-05-14T09:21:17.911Z,3.95
2023-05-14T09:26:23.651Z,4.38
2023-05-14T09:31:25.081Z,3.70
2023-05-14T09:36:27.125Z,4.57
2023-05-14T09:41:28.602Z,4.35
2023-05-14T09:46:30.107Z,3.42
2023-05-14T09:57:08.987Z,4.57
2023-05-14T10:02:34.819Z,4.60
2023-05-14T10:07:44.171Z,4.22
2023-05-14T10:12:52.670Z,4.72
2023-05-14T10:18:00.357Z,7.18
2023-05-14T10:23:02.140Z,5.55
2023-05-14T10:28:05.241Z,7.72
2023-05-14T10:33:13.125Z,4.47
2023-05-14T10:38:14.975Z,3.25
2023-05-14T10:43:17.539Z,5.70
2023-05-14T10:48:19.646Z,5.35
2023-05-14T10:53:34.464Z,3.60
2023-05-14T10:58:42.784Z,4.80
2023-05-14T11:03:46.640Z,4.22
2023-05-14T11:08:51.060Z,3.30
2023-05-14T11:13:53.902Z,4.13
2023-05-14T11:19:02.927Z,7.18
2023-05-14T11:24:04.822Z,5.63
2023-05-14T11:29:06.310Z,5.15
2023-05-14T11:34:07.910Z,3.45
2023-05-14T11:39:09.367Z,6.72
2023-05-14T11:44:10.965Z,3.75
2023-05-14T11:49:12.483Z,4.10
2023-05-14T11:54:14.278Z,4.68
2023-05-14T11:59:17.284Z,5.53
2023-05-14T12:04:19.699Z,4.10
2023-05-14T12:09:22.320Z,5.15
2023-05-14T12:14:24.371Z,3.17
2023-05-14T12:19:25.819Z,5.03
2023-05-14T12:24:29.107Z,4.13
2023-05-14T12:29:39.230Z,2.75
2023-05-14T12:34:40.729Z,2.78
2023-05-14T12:44:52.882Z,4.30
2023-05-14T12:49:54.353Z,3.00
2023-05-14T13:00:20.558Z,4.07
2023-05-14T13:10:45.766Z,3.13
2023-05-14T13:31:23.022Z,4.82
2023-05-14T13:47:26.928Z,4.15
2023-05-14T14:02:53.925Z,4.97
2023-05-14T14:08:01.066Z,4.05
2023-05-14T14:18:50.668Z,5.53
2023-05-14T14:29:15.336Z,3.05
2023-05-14T14:34:16.808Z,4.20
2023-05-14T14:39:18.227Z,3.67
2023-05-14T14:49:50.305Z,4.60
2023-05-14T15:00:03.306Z,5.18
2023-05-14T15:21:24.035Z,5.15
2023-05-14T15:26:25.453Z,3.85
2023-05-14T15:31:26.939Z,5.28
2023-05-14T15:36:28.366Z,4.43
2023-05-14T15:41:29.908Z,4.75
2023-05-14T15:46:31.411Z,3.53
2023-05-14T15:51:32.892Z,3.50
2023-05-14T15:56:34.389Z,4.40
2023-05-14T16:01:35.883Z,5.55
2023-05-14T16:06:37.346Z,4.47
2023-05-14T16:11:38.841Z,3.85
2023-05-14T16:16:40.274Z,5.70
2023-05-14T16:21:43.238Z,5.35
2023-05-14T16:37:48.559Z,6.68
2023-05-14T16:48:16.985Z,4.18
2023-05-14T16:53:19.581Z,3.50
2023-05-14T17:03:32.941Z,5.70
2023-05-14T17:08:34.410Z,5.78
2023-05-14T17:13:35.875Z,3.55
2023-05-14T17:18:37.394Z,3.65
2023-05-14T17:23:38.861Z,4.05
2023-05-14T17:28:40.262Z,3.85
2023-05-14T17:33:41.808Z,10.32
2023-05-14T17:38:43.319Z,4.50
2023-05-14T17:43:44.755Z,5.65
2023-05-14T17:48:51.309Z,3.80
2023-05-14T17:53:52.961Z,4.25
2023-05-14T17:58:54.403Z,5.13
2023-05-14T18:03:55.890Z,4.00
2023-05-14T18:08:57.547Z,5.47
2023-05-14T18:14:02.649Z,5.78
2023-05-14T18:19:04.691Z,3.65
2023-05-14T18:24:06.620Z,4.55
2023-05-14T18:29:08.451Z,5.07
2023-05-14T18:34:09.875Z,5.45
2023-05-14T18:39:11.318Z,3.83
2023-05-14T18:44:13.149Z,3.90
2023-05-14T18:49:14.626Z,4.10
2023-05-14T18:54:16.029Z,5.75
2023-05-14T18:59:17.524Z,5.65
2023-05-14T19:04:18.934Z,5.57
2023-05-14T19:14:25.276Z,5.80
2023-05-14T19:19:26.813Z,7.28
2023-05-14T19:24:28.298Z,4.63
2023-05-14T19:29:29.762Z,4.35
2023-05-14T19:34:31.246Z,5.75
2023-05-14T19:39:32.725Z,4.15
2023-05-14T19:44:34.231Z,4.25
2023-05-14T19:49:35.710Z,4.68
2023-05-14T19:54:37.154Z,4.80
2023-05-14T19:59:38.625Z,5.03
2023-05-14T20:04:40.130Z,4.55
2023-05-14T20:09:42.021Z,5.18
2023-05-14T20:14:43.530Z,6.47
2023-05-14T20:19:45.017Z,4.90
2023-05-14T20:24:46.446Z,4.75
2023-05-14T20:29:47.872Z,6.68
2023-05-14T20:34:49.274Z,5.60
2023-05-14T20:39:50.756Z,6.57
2023-05-14T20:44:53.084Z,5.13
2023-05-14T20:50:01.708Z,5.25
2023-05-14T20:55:03.357Z,6.85
2023-05-14T21:00:05.456Z,5.43
2023-05-14T21:05:07.062Z,5.95
2023-05-14T21:10:09.361Z,6.60
2023-05-14T21:15:11.062Z,6.82
2023-05-14T21:25:24.951Z,7.35
2023-05-14T21:35:34.807Z,7.93
2023-05-14T21:40:36.520Z,8.50
2023-05-14T21:56:18.090Z,7.78
2023-05-14T22:01:19.581Z,7.20
2023-05-14T22:06:21.475Z,6.85
2023-05-14T22:11:23.008Z,7.80
2023-05-14T22:16:24.480Z,7.43
2023-05-14T22:21:26.041Z,7.18
2023-05-14T22:26:27.521Z,7.32
2023-05-14T22:31:30.799Z,7.75
2023-05-14T22:36:32.295Z,7.20
2023-05-14T22:41:40.450Z,8.30
2023-05-14T22:46:42.064Z,7.78
2023-05-14T22:51:43.551Z,6.53
2023-05-14T22:56:45.015Z,8.30
2023-05-14T23:01:46.563Z,7.85
2023-05-14T23:06:48.133Z,7.55
2023-05-14T23:11:49.680Z,7.88
2023-05-14T23:16:51.141Z,8.20
2023-05-14T23:21:52.572Z,8.32
2023-05-14T23:26:54.027Z,7.93
2023-05-14T23:31:55.497Z,8.05
2023-05-14T23:36:57.030Z,9.30
2023-05-14T23:41:58.475Z,8.52
2023-05-14T23:46:59.998Z,8.57
2023-05-14T23:52:01.990Z,9.98
2023-05-14T23:57:15.272Z,9.13
